Time;durP1;ratioP1;P1;durP2;ratioP2;P2;SDS_P1;SDS_P2;PMS_P1;PMS_P2;Temp;Humidity;BMP_temperature;BMP_pressure;BME280_temperature;BME280_humidity;BME280_pressure;Samples;Min_cycle;Max_cycle;Signal;HPM_P1;HPM_P2
2023/06/02 00:02:13;;;;;;;10.00;7.90;;;;;;;18.26;73.47;100207.50;5075177;28;20693;-76
2023/06/02 00:04:40;;;;;;;8.33;7.50;;;;;;;18.16;74.20;100211.41;5073662;28;20238;-74
2023/06/02 00:07:07;;;;;;;9.57;7.17;;;;;;;18.18;74.15;100207.81;5074098;28;20302;-77
2023/06/02 00:09:42;;;;;;;7.87;7.17;;;;;;;18.08;74.53;100203.88;5072278;28;20184;-75
2023/06/02 00:12:10;;;;;;;7.20;6.57;;;;;;;18.02;74.65;100212.84;5072969;28;20684;-76
2023/06/02 00:14:38;;;;;;;8.27;7.53;;;;;;;18.00;74.84;100209.41;5072832;28;20507;-75
2023/06/02 00:17:04;;;;;;;7.63;6.90;;;;;;;17.95;74.88;100200.88;5071340;28;20215;-75
2023/06/02 00:19:30;;;;;;;7.57;6.67;;;;;;;17.87;75.07;100209.06;5072831;28;20672;-76
2023/06/02 00:22:05;;;;;;;8.67;7.20;;;;;;;17.86;75.28;100207.34;5071119;28;20197;-76
2023/06/02 00:24:31;;;;;;;6.80;6.30;;;;;;;17.79;75.15;100206.75;5072193;28;20185;-75
2023/06/02 00:26:57;;;;;;;7.23;6.53;;;;;;;17.74;75.72;100205.25;5069779;28;20182;-75
2023/06/02 00:29:22;;;;;;;7.60;6.80;;;;;;;17.68;75.98;100201.94;5054056;28;20185;-75
2023/06/02 00:31:48;;;;;;;7.53;6.80;;;;;;;17.64;75.92;100209.97;5053665;28;20216;-75
2023/06/02 00:34:13;;;;;;;7.60;6.90;;;;;;;17.61;76.42;100203.13;5072842;28;20189;-74
2023/06/02 00:36:39;;;;;;;7.93;7.13;;;;;;;17.58;76.16;100212.81;5076789;28;20191;-74
2023/06/02 00:39:04;;;;;;;7.80;7.10;;;;;;;17.56;76.59;100212.91;5071994;28;20273;-75
2023/06/02 00:41:31;;;;;;;10.40;7.10;;;;;;;17.52;76.48;100214.78;5070186;28;20201;-75
2023/06/02 00:43:56;;;;;;;9.03;7.43;;;;;;;17.46;76.89;100215.03;5073612;28;20203;-76
2023/06/02 00:46:22;;;;;;;7.57;6.97;;;;;;;17.43;76.68;100222.16;5074465;28;20189;-76
2023/06/02 00:48:48;;;;;;;7.63;6.93;;;;;;;17.36;76.85;100213.69;5074681;28;20689;-75
2023/06/02 00:51:15;;;;;;;8.13;7.07;;;;;;;17.35;76.70;100223.28;5071268;28;20197;-74
2023/06/02 00:53:40;;;;;;;8.00;7.20;;;;;;;17.31;77.33;100220.84;5073154;28;20181;-74
2023/06/02 00:56:06;;;;;;;7.53;6.83;;;;;;;17.34;77.17;100232.03;5073401;28;20196;-74
2023/06/02 00:58:37;;;;;;;8.13;7.33;;;;;;;17.27;77.42;100227.09;5067002;28;20185;-77
2023/06/02 01:01:02;;;;;;;13.63;8.30;;;;;;;17.21;77.98;100225.56;5065453;28;20319;-74
2023/06/02 01:03:28;;;;;;;9.20;7.97;;;;;;;17.18;78.12;100229.16;5069249;28;20210;-75
2023/06/02 01:05:55;;;;;;;10.27;7.93;;;;;;;17.11;78.81;100232.91;5067484;28;20253;-76
2023/06/02 01:08:21;;;;;;;7.80;7.00;;;;;;;17.04;79.05;100234.03;5073195;28;20254;-75
2023/06/02 01:10:47;;;;;;;8.37;7.53;;;;;;;16.98;78.82;100227.28;5068556;28;20337;-75
2023/06/02 01:13:12;;;;;;;8.20;7.33;;;;;;;16.94;78.89;100220.44;5074182;28;20227;-74
2023/06/02 01:15:38;;;;;;;7.90;7.10;;;;;;;16.86;79.67;100233.78;5067804;28;20192;-77
2023/06/02 01:18:10;;;;;;;9.37;6.83;;;;;;;16.87;79.65;100232.00;5067955;28;20188;-74
2023/06/02 01:20:51;;;;;;;7.70;6.90;;;;;;;16.81;79.89;100230.47;5067355;28;20288;-73
2023/06/02 01:23:32;;;;;;;8.03;7.23;;;;;;;16.73;80.39;100228.13;5068575;28;20227;-74
2023/06/02 01:25:57;;;;;;;9.27;7.53;;;;;;;16.73;80.81;100230.72;5067889;28;20185;-75
2023/06/02 01:28:24;;;;;;;9.73;7.30;;;;;;;16.69;81.22;100229.16;5055718;28;20181;-75
2023/06/02 01:30:55;;;;;;;9.67;7.13;;;;;;;16.64;81.54;100227.63;5069051;28;20216;-74
2023/06/02 01:33:30;;;;;;;9.80;7.80;;;;;;;16.61;81.97;100223.34;5054001;28;20662;-76
2023/06/02 01:35:59;;;;;;;9.33;7.93;;;;;;;16.58;82.92;100229.53;5053580;28;20182;-76
2023/06/02 01:38:26;;;;;;;8.23;7.43;;;;;;;16.43;83.00;100228.28;5071596;28;20180;-74
2023/06/02 01:40:59;;;;;;;8.33;7.43;;;;;;;16.33;83.51;100221.69;5067480;28;20201;-75
2023/06/02 01:43:26;;;;;;;7.07;6.43;;;;;;;16.34;82.97;100223.38;5054500;28;20186;-74
2023/06/02 01:45:51;;;;;;;8.93;8.10;;;;;;;16.25;83.29;100224.53;5068042;28;20189;-75
2023/06/02 01:48:17;;;;;;;8.20;7.43;;;;;;;16.20;83.68;100231.66;5070469;28;20920;-76
2023/06/02 01:50:43;;;;;;;8.33;7.60;;;;;;;16.13;83.49;100227.56;5067706;28;20710;-75
2023/06/02 01:53:08;;;;;;;8.40;7.57;;;;;;;16.05;83.23;100232.19;5069550;28;20218;-75
2023/06/02 01:55:34;;;;;;;7.87;7.17;;;;;;;16.03;83.95;100232.25;5071464;28;20564;-74
2023/06/02 01:57:59;;;;;;;12.00;7.57;;;;;;;16.00;84.43;100230.59;5069524;28;20278;-75
2023/06/02 02:00:26;;;;;;;8.33;7.37;;;;;;;15.95;84.45;100237.72;5051676;28;20236;-74
2023/06/02 02:02:52;;;;;;;8.50;7.13;;;;;;;15.89;84.77;100234.44;5067847;28;20228;-78
2023/06/02 02:05:18;;;;;;;8.13;7.33;;;;;;;15.83;85.48;100240.69;5071161;28;20284;-74
2023/06/02 02:07:44;;;;;;;9.10;7.50;;;;;;;15.76;85.83;100237.41;5069792;28;20199;-75
2023/06/02 02:10:10;;;;;;;8.23;7.43;;;;;;;15.75;86.43;100243.53;5071280;28;20558;-74
2023/06/02 02:12:36;;;;;;;8.17;7.37;;;;;;;15.72;86.79;100237.56;5071259;28;20196;-74
2023/06/02 02:15:01;;;;;;;9.17;8.27;;;;;;;15.70;86.86;100238.47;5074199;28;20676;-75
2023/06/02 02:17:28;;;;;;;8.77;7.97;;;;;;;15.69;86.60;100247.19;5069661;28;20240;-74
2023/06/02 02:19:56;;;;;;;8.77;7.97;;;;;;;15.61;86.94;100246.56;5068585;28;20181;-77
2023/06/02 02:22:25;;;;;;;9.23;8.33;;;;;;;15.59;87.16;100252.72;5050574;28;20285;-76
2023/06/02 02:24:51;;;;;;;8.50;7.70;;;;;;;15.54;87.18;100251.09;5070453;28;20233;-76
2023/06/02 02:27:17;;;;;;;8.17;7.43;;;;;;;15.55;87.60;100249.38;5072382;28;20320;-75
2023/06/02 02:29:42;;;;;;;8.23;7.53;;;;;;;15.50;88.02;100249.47;5070171;28;20202;-76
2023/06/02 02:32:08;;;;;;;8.73;7.93;;;;;;;15.53;88.16;100251.16;5050787;28;20582;-75
2023/06/02 02:34:33;;;;;;;8.93;7.93;;;;;;;15.48;88.68;100253.91;5051738;28;20192;-75
2023/06/02 02:37:02;;;;;;;9.27;8.37;;;;;;;15.45;88.58;100266.16;5069272;28;20218;-75
2023/06/02 02:39:29;;;;;;;9.33;8.30;;;;;;;15.42;88.35;100261.91;5071639;28;20177;-75
2023/06/02 02:41:54;;;;;;;9.77;8.50;;;;;;;15.37;89.20;100267.25;5066971;28;20202;-75
2023/06/02 02:44:19;;;;;;;8.93;8.03;;;;;;;15.42;89.16;100274.09;5070666;28;20363;-75
2023/06/02 02:46:45;;;;;;;8.27;7.57;;;;;;;15.31;89.52;100272.66;5067945;28;20189;-74
2023/06/02 02:49:10;;;;;;;8.53;7.73;;;;;;;15.34;88.31;100284.75;5070245;28;20183;-77
2023/06/02 02:51:36;;;;;;;8.77;7.83;;;;;;;15.27;89.05;100284.09;5067826;28;20624;-75
2023/06/02 02:54:03;;;;;;;8.10;7.40;;;;;;;15.36;88.20;100285.53;5049066;28;20192;-74
2023/06/02 02:56:28;;;;;;;8.90;8.00;;;;;;;15.32;88.64;100284.78;5066127;28;20228;-76
2023/06/02 02:58:56;;;;;;;10.83;8.23;;;;;;;15.19;88.99;100292.13;5069619;28;20188;-76
2023/06/02 03:01:22;;;;;;;8.77;8.07;;;;;;;15.11;89.50;100285.41;5068009;28;20673;-75
2023/06/02 03:03:49;;;;;;;8.40;7.70;;;;;;;15.10;89.72;100302.78;5068537;28;20248;-76
2023/06/02 03:06:18;;;;;;;9.33;8.43;;;;;;;15.02;90.23;100287.34;5069347;28;20681;-77
2023/06/02 03:08:43;;;;;;;8.60;7.80;;;;;;;15.17;89.42;100300.84;5068217;28;20404;-75
2023/06/02 03:11:09;;;;;;;9.33;8.20;;;;;;;15.03;90.22;100291.69;5064354;28;20260;-75
2023/06/02 03:13:34;;;;;;;9.57;8.57;;;;;;;15.02;90.09;100300.38;5070265;28;20189;-74
2023/06/02 03:16:00;;;;;;;9.30;8.40;;;;;;;14.98;90.71;100297.91;5062562;28;20192;-73
2023/06/02 03:18:25;;;;;;;9.33;8.40;;;;;;;14.91;91.17;100297.22;5051565;28;20188;-74
2023/06/02 03:20:51;;;;;;;9.50;8.70;;;;;;;14.79;91.13;100293.19;5070810;28;20206;-78
2023/06/02 03:23:17;;;;;;;9.43;8.57;;;;;;;14.82;91.50;100306.13;5065925;28;20182;-77
2023/06/02 03:25:43;;;;;;;10.17;9.13;;;;;;;14.70;92.69;100296.03;5064017;28;20601;-75
2023/06/02 03:28:08;;;;;;;9.70;8.80;;;;;;;14.81;91.93;100304.44;5066867;28;20670;-75
2023/06/02 03:30:34;;;;;;;9.77;8.23;;;;;;;14.58;93.24;100300.66;5063642;28;20209;-74
2023/06/02 03:32:59;;;;;;;9.57;8.70;;;;;;;14.60;93.10;100303.19;5068511;28;20187;-74
2023/06/02 03:35:25;;;;;;;9.80;8.97;;;;;;;14.55;93.25;100303.31;5061997;28;20607;-74
2023/06/02 03:37:50;;;;;;;10.47;9.47;;;;;;;14.48;93.83;100309.56;5065324;28;21719;-74
2023/06/02 03:40:15;;;;;;;9.70;8.83;;;;;;;14.50;93.99;100306.94;5066063;28;20874;-74
2023/06/02 03:42:41;;;;;;;9.97;8.97;;;;;;;14.38;95.13;100298.50;5064170;28;20228;-75
2023/06/02 03:45:07;;;;;;;9.70;8.80;;;;;;;14.40;94.90;100303.69;5066805;28;20188;-77
2023/06/02 03:47:32;;;;;;;9.87;8.93;;;;;;;14.30;95.50;100300.47;5065277;28;20180;-74
2023/06/02 03:49:57;;;;;;;9.43;8.63;;;;;;;14.25;95.87;100307.53;5069802;28;20179;-74
2023/06/02 03:52:24;;;;;;;9.80;8.33;;;;;;;14.29;95.62;100312.59;5067154;28;20274;-74
2023/06/02 03:54:49;;;;;;;10.17;9.00;;;;;;;14.36;95.58;100308.13;5068360;28;20691;-76
2023/06/02 03:57:15;;;;;;;8.70;7.90;;;;;;;14.39;95.06;100315.84;5067462;28;20214;-74
2023/06/02 03:59:40;;;;;;;11.77;8.60;;;;;;;14.39;95.49;100313.25;5071137;28;20665;-73
2023/06/02 04:02:06;;;;;;;10.43;9.03;;;;;;;14.43;95.63;100311.44;5055089;28;20260;-76
2023/06/02 04:04:31;;;;;;;9.77;8.87;;;;;;;14.43;95.30;100321.88;5074636;28;20190;-74
2023/06/02 04:06:57;;;;;;;9.67;8.67;;;;;;;14.37;95.87;100312.44;5070362;28;20177;-74
2023/06/02 04:09:22;;;;;;;8.90;8.10;;;;;;;14.32;95.91;100319.50;5075425;28;20327;-75
2023/06/02 04:11:48;;;;;;;8.97;8.13;;;;;;;14.38;95.74;100321.09;5052792;28;20221;-74
2023/06/02 04:14:13;;;;;;;9.30;8.50;;;;;;;14.47;94.92;100326.94;5074234;28;20195;-74
2023/06/02 04:16:38;;;;;;;8.83;8.13;;;;;;;14.39;95.59;100326.25;5071655;28;20271;-74
2023/06/02 04:19:05;;;;;;;8.63;7.83;;;;;;;14.43;95.83;100327.06;5076108;28;20812;-73
2023/06/02 04:21:30;;;;;;;9.37;8.47;;;;;;;14.58;94.45;100326.69;5071756;28;20212;-74
2023/06/02 04:23:56;;;;;;;8.93;8.10;;;;;;;14.63;94.21;100329.19;5074225;28;20657;-74
2023/06/02 04:26:21;;;;;;;8.77;7.87;;;;;;;14.66;94.15;100338.66;5070867;28;20723;-75
2023/06/02 04:28:46;;;;;;;9.30;8.40;;;;;;;14.69;94.04;100339.44;5072328;28;20395;-76
2023/06/02 04:31:11;;;;;;;8.93;8.10;;;;;;;14.71;94.15;100342.03;5071111;28;20214;-75
2023/06/02 04:33:37;;;;;;;9.03;8.23;;;;;;;14.86;93.41;100341.66;5051993;28;20281;-73
2023/06/02 04:36:03;;;;;;;9.60;8.43;;;;;;;15.03;93.03;100337.75;5071352;28;20183;-75
2023/06/02 04:38:29;;;;;;;9.03;8.13;;;;;;;15.36;91.53;100333.34;5069878;28;20837;-74
2023/06/02 04:40:56;;;;;;;9.33;8.50;;;;;;;15.66;89.87;100332.50;5068867;28;20209;-77
2023/06/02 04:43:22;;;;;;;8.30;7.50;;;;;;;15.99;88.75;100341.13;5055875;28;20185;-73
2023/06/02 04:45:47;;;;;;;8.90;7.93;;;;;;;16.12;86.93;100341.56;5067386;28;20958;-74
2023/06/02 04:48:12;;;;;;;8.40;7.27;;;;;;;16.15;86.56;100338.03;5068465;28;20197;-75
2023/06/02 04:50:38;;;;;;;7.80;7.20;;;;;;;16.17;86.71;100341.47;5055161;28;20201;-76
2023/06/02 04:53:03;;;;;;;8.10;7.33;;;;;;;16.32;86.81;100339.25;5076043;28;20244;-75
2023/06/02 04:55:29;;;;;;;8.90;7.67;;;;;;;16.42;85.65;100335.44;5053919;28;20214;-76
2023/06/02 04:57:55;;;;;;;8.87;7.93;;;;;;;16.29;84.49;100343.66;5069272;28;20197;-75
2023/06/02 05:00:20;;;;;;;15.47;8.37;;;;;;;16.28;85.22;100343.69;5072217;28;20217;-75
2023/06/02 05:02:45;;;;;;;8.50;7.57;;;;;;;16.27;84.74;100342.88;5055737;28;20194;-75
2023/06/02 05:05:11;;;;;;;7.83;7.13;;;;;;;16.43;84.77;100344.97;5075324;28;20193;-76
2023/06/02 05:07:37;;;;;;;8.70;7.83;;;;;;;16.49;83.77;100341.31;5074822;28;20217;-75
2023/06/02 05:10:03;;;;;;;8.07;7.23;;;;;;;16.63;84.26;100349.53;5072511;28;20281;-75
2023/06/02 05:12:28;;;;;;;8.20;7.50;;;;;;;16.83;83.26;100351.47;5072223;28;20226;-74
2023/06/02 05:14:54;;;;;;;7.93;7.23;;;;;;;17.01;82.15;100338.72;5074357;28;20587;-75
2023/06/02 05:17:24;;;;;;;8.57;7.70;;;;;;;17.18;81.52;100357.28;5071608;28;20193;-76
2023/06/02 05:19:53;;;;;;;8.60;7.90;;;;;;;17.20;81.05;100349.38;5069393;28;20538;-77
2023/06/02 05:22:19;;;;;;;8.87;8.07;;;;;;;17.11;80.89;100357.56;5072715;28;20203;-76
2023/06/02 05:24:44;;;;;;;7.97;6.70;;;;;;;17.29;80.99;100363.91;5052336;28;20193;-75
2023/06/02 05:27:09;;;;;;;7.50;6.90;;;;;;;17.23;79.81;100351.06;5072684;28;20181;-75
2023/06/02 05:29:35;;;;;;;6.80;6.20;;;;;;;17.29;80.27;100350.81;5068981;28;20185;-73
2023/06/02 05:32:00;;;;;;;7.60;6.90;;;;;;;17.39;79.92;100348.72;5069244;28;20216;-74
2023/06/02 05:34:25;;;;;;;7.83;6.67;;;;;;;17.67;79.92;100353.81;5050382;28;20185;-76
2023/06/02 05:36:50;;;;;;;7.70;7.00;;;;;;;17.93;78.53;100359.81;5052039;28;20707;-78
2023/06/02 05:39:16;;;;;;;18.93;7.20;;;;;;;17.95;78.40;100350.97;5069923;28;20193;-76
2023/06/02 05:41:42;;;;;;;7.63;6.20;;;;;;;18.04;77.35;100357.66;5069940;28;20201;-75
2023/06/02 05:44:07;;;;;;;6.67;5.80;;;;;;;18.13;77.37;100344.22;5065487;28;20192;-76
2023/06/02 05:46:33;;;;;;;8.77;6.60;;;;;;;18.24;77.31;100362.09;5059949;28;20242;-77
2023/06/02 05:48:58;;;;;;;5.97;5.47;;;;;;;18.32;77.54;100355.72;5067948;28;20197;-75
2023/06/02 05:51:23;;;;;;;6.50;6.00;;;;;;;18.18;77.00;100356.25;5069696;28;20596;-78
2023/06/02 05:53:50;;;;;;;6.47;5.80;;;;;;;17.88;77.82;100362.59;5051858;28;20642;-75
2023/06/02 05:56:15;;;;;;;7.20;6.60;;;;;;;17.80;78.25;100357.66;5072585;28;20189;-74
2023/06/02 05:58:41;;;;;;;7.73;7.03;;;;;;;17.64;78.28;100367.00;5069456;28;20817;-77
2023/06/02 06:01:06;;;;;;;7.27;6.67;;;;;;;17.81;77.99;100358.50;5071672;28;20293;-77
2023/06/02 06:03:32;;;;;;;7.00;6.40;;;;;;;17.89;77.58;100358.22;5065786;28;20224;-76
2023/06/02 06:05:57;;;;;;;7.50;6.60;;;;;;;17.96;77.64;100354.47;5071510;28;20639;-76
2023/06/02 06:08:23;;;;;;;6.63;6.03;;;;;;;17.82;77.40;100355.84;5069804;28;20189;-76
2023/06/02 06:10:48;;;;;;;7.30;6.27;;;;;;;17.88;77.63;100359.13;5068153;28;20311;-77
2023/06/02 06:13:13;;;;;;;7.17;6.47;;;;;;;17.97;77.00;100354.41;5051414;28;20193;-75
2023/06/02 06:15:39;;;;;;;8.73;5.73;;;;;;;18.07;77.19;100351.47;5068972;28;20237;-75
2023/06/02 06:18:04;;;;;;;6.80;6.27;;;;;;;17.98;77.30;100356.13;5071332;28;20196;-76
2023/06/02 06:20:30;;;;;;;6.83;6.17;;;;;;;18.19;76.49;100348.34;5064939;28;20766;-75
2023/06/02 06:22:56;;;;;;;6.53;5.93;;;;;;;18.36;76.47;100349.44;5047301;28;20185;-74
2023/06/02 06:25:21;;;;;;;5.97;5.33;;;;;;;18.58;76.10;100349.41;5067218;28;20249;-74
2023/06/02 06:27:46;;;;;;;6.03;5.43;;;;;;;18.78;75.25;100356.44;5069297;28;20277;-76
2023/06/02 06:30:12;;;;;;;6.97;5.33;;;;;;;18.89;74.79;100354.22;5053970;28;20200;-75
2023/06/02 06:32:37;;;;;;;6.10;5.50;;;;;;;19.02;75.09;100351.09;5069339;28;20206;-74
2023/06/02 06:35:03;;;;;;;8.80;6.23;;;;;;;18.95;73.91;100354.91;5069580;28;20271;-75
2023/06/02 06:37:28;;;;;;;7.57;5.73;;;;;;;18.74;74.56;100355.72;5071310;28;20245;-75
2023/06/02 06:39:54;;;;;;;7.60;6.03;;;;;;;18.71;74.85;100347.97;5071270;28;20188;-74
2023/06/02 06:42:21;;;;;;;7.53;5.43;;;;;;;18.80;74.89;100352.00;5068719;28;20200;-75
2023/06/02 06:44:48;;;;;;;6.17;5.57;;;;;;;18.79;74.54;100352.91;5050879;28;20255;-77
2023/06/02 06:47:14;;;;;;;5.90;5.23;;;;;;;18.96;75.12;100352.19;5053056;28;20189;-74
2023/06/02 06:49:39;;;;;;;7.43;5.20;;;;;;;19.10;74.46;100354.25;5068067;28;20177;-73
2023/06/02 06:52:05;;;;;;;7.90;5.63;;;;;;;19.25;73.24;100365.81;5068056;28;20209;-74
2023/06/02 06:54:30;;;;;;;10.83;5.80;;;;;;;19.36;72.62;100361.88;5048983;28;20280;-73
2023/06/02 06:56:55;;;;;;;6.30;5.37;;;;;;;19.37;72.13;100364.44;5055058;28;20211;-74
2023/06/02 06:59:21;;;;;;;6.77;5.80;;;;;;;19.20;73.01;100365.19;5068230;28;20238;-76
2023/06/02 07:01:46;;;;;;;7.83;5.67;;;;;;;18.91;73.42;100371.66;5052619;28;20194;-75
2023/06/02 07:04:12;;;;;;;5.27;4.77;;;;;;;19.23;73.92;100364.19;5072345;28;20178;-76
2023/06/02 07:06:37;;;;;;;6.20;5.70;;;;;;;19.53;72.83;100377.72;5073827;28;20192;-74
2023/06/02 07:09:03;;;;;;;6.40;5.63;;;;;;;19.40;72.19;100384.44;5070813;28;20318;-74
2023/06/02 07:11:28;;;;;;;7.57;5.30;;;;;;;19.45;72.58;100383.31;5069954;28;20194;-78
2023/06/02 07:13:54;;;;;;;5.70;5.10;;;;;;;19.63;72.30;100379.00;5069785;28;20186;-73
2023/06/02 07:16:21;;;;;;;6.70;5.43;;;;;;;19.57;72.48;100373.19;5071457;28;20185;-73
2023/06/02 07:18:46;;;;;;;6.03;5.43;;;;;;;19.55;72.01;100378.50;5049984;28;20766;-74
2023/06/02 07:21:12;;;;;;;6.33;5.17;;;;;;;19.59;71.88;100382.69;5072015;28;20213;-76
2023/06/02 07:23:37;;;;;;;7.07;6.07;;;;;;;19.45;72.00;100378.06;5070146;28;20178;-75
2023/06/02 07:26:02;;;;;;;5.83;5.10;;;;;;;19.72;72.13;100385.63;5073865;28;20613;-75
2023/06/02 07:28:28;;;;;;;7.77;6.03;;;;;;;19.46;72.12;100378.91;5070752;28;20661;-76
2023/06/02 07:30:53;;;;;;;8.27;6.30;;;;;;;19.44;72.23;100372.88;5068582;28;20212;-74
2023/06/02 07:33:19;;;;;;;5.90;5.40;;;;;;;19.65;72.02;100371.94;5072300;28;20272;-75
2023/06/02 07:35:45;;;;;;;5.83;5.27;;;;;;;19.91;71.72;100361.16;5070896;28;20181;-77
2023/06/02 07:38:10;;;;;;;8.83;6.30;;;;;;;19.70;71.14;100379.59;5054288;28;20202;-77
2023/06/02 07:40:35;;;;;;;5.60;5.10;;;;;;;19.83;71.01;100377.22;5070366;28;21295;-76
2023/06/02 07:43:01;;;;;;;6.30;5.80;;;;;;;19.92;71.17;100361.09;5069694;28;20724;-76
2023/06/02 07:45:26;;;;;;;6.20;5.60;;;;;;;20.04;70.80;100369.31;5073328;28;20177;-76
2023/06/02 07:47:52;;;;;;;7.07;5.50;;;;;;;20.04;70.47;100364.06;5069906;28;21130;-77
2023/06/02 07:50:18;;;;;;;7.37;5.90;;;;;;;20.14;70.71;100370.56;5053404;28;20685;-77
2023/06/02 07:52:44;;;;;;;6.73;6.03;;;;;;;20.07;70.49;100364.75;5057695;28;20201;-77
2023/06/02 07:55:10;;;;;;;5.77;5.30;;;;;;;20.06;70.57;100368.31;5073918;28;20178;-78
2023/06/02 07:57:36;;;;;;;6.13;5.63;;;;;;;19.92;70.99;100365.47;5070495;28;20645;-77
2023/06/02 08:00:15;;;;;;;5.33;4.83;;;;;;;20.03;71.04;100357.09;5071897;28;20220;-78
2023/06/02 08:02:43;;;;;;;6.00;5.40;;;;;;;20.11;70.63;100360.22;5072671;28;20215;-77
2023/06/02 08:05:09;;;;;;;6.70;6.10;;;;;;;20.05;70.57;100368.38;5071393;28;20181;-78
2023/06/02 08:07:35;;;;;;;9.37;5.60;;;;;;;19.94;71.34;100368.88;5071562;28;20816;-78
2023/06/02 08:10:00;;;;;;;6.67;5.53;;;;;;;19.82;71.15;100366.81;5076268;28;20185;-77
2023/06/02 08:12:25;;;;;;;7.33;6.17;;;;;;;19.59;71.30;100368.69;5063586;28;20335;-78
2023/06/02 08:14:51;;;;;;;6.73;5.40;;;;;;;19.79;72.16;100358.16;5072267;28;20236;-77
2023/06/02 08:17:16;;;;;;;5.53;5.03;;;;;;;19.86;71.64;100360.50;5077394;28;20180;-76
2023/06/02 08:19:41;;;;;;;5.20;4.80;;;;;;;20.16;70.93;100360.84;5071346;28;20246;-78
2023/06/02 08:22:09;;;;;;;6.27;5.53;;;;;;;20.13;70.83;100354.88;5072295;28;20720;-78
2023/06/02 08:24:36;;;;;;;6.47;5.90;;;;;;;20.15;70.43;100353.03;5071275;28;20685;-77
2023/06/02 08:27:03;;;;;;;6.23;5.60;;;;;;;20.19;70.90;100357.22;5055643;28;20173;-76
2023/06/02 08:29:30;;;;;;;6.50;5.90;;;;;;;20.20;70.86;100351.91;5074748;28;20258;-77
2023/06/02 08:31:55;;;;;;;6.80;5.73;;;;;;;20.25;70.78;100342.03;5054889;28;20214;-76
2023/06/02 08:34:21;;;;;;;8.40;6.20;;;;;;;20.09;70.66;100360.28;5072629;28;20189;-75
2023/06/02 08:36:53;;;;;;;8.27;6.37;;;;;;;19.83;71.07;100347.50;5074570;28;20213;-75
2023/06/02 08:39:18;;;;;;;10.03;7.33;;;;;;;19.58;71.10;100349.47;5070493;28;20714;-76
2023/06/02 08:41:46;;;;;;;6.37;5.80;;;;;;;19.56;71.80;100347.88;5056028;28;20276;-76
2023/06/02 08:44:12;;;;;;;7.00;5.70;;;;;;;19.61;71.97;100365.09;5061537;28;20195;-76
2023/06/02 08:46:38;;;;;;;7.20;6.50;;;;;;;19.58;71.46;100357.38;5075851;28;20185;-75
2023/06/02 08:49:03;;;;;;;8.93;7.07;;;;;;;19.60;71.54;100359.91;5074533;28;20212;-75
2023/06/02 08:51:36;;;;;;;7.40;6.00;;;;;;;19.56;72.17;100347.88;5081295;28;20219;-75
2023/06/02 08:54:02;;;;;;;7.30;6.60;;;;;;;19.55;71.49;100347.00;5079246;28;20230;-76
2023/06/02 08:56:29;;;;;;;7.67;6.87;;;;;;;19.57;71.47;100353.03;5078848;28;20257;-75
2023/06/02 08:58:54;;;;;;;7.10;6.40;;;;;;;19.59;71.92;100342.44;5078915;28;20267;-77
2023/06/02 09:01:19;;;;;;;6.90;6.30;;;;;;;19.66;71.94;100346.50;5079338;28;20284;-75
2023/06/02 09:03:48;;;;;;;10.57;7.10;;;;;;;19.61;71.62;100361.59;5064788;28;20398;-75
2023/06/02 09:06:22;;;;;;;9.40;6.87;;;;;;;19.54;71.60;100344.44;5102408;28;20170;-78
2023/06/02 09:08:54;;;;;;;8.03;7.07;;;;;;;19.50;71.88;100352.47;5101907;28;20268;-78
2023/06/02 09:11:19;;;;;;;7.13;6.43;;;;;;;19.49;72.27;100337.63;5083876;28;20296;-76
2023/06/02 09:13:45;;;;;;;8.57;7.53;;;;;;;19.49;71.61;100340.25;5058210;28;20336;-76
2023/06/02 09:16:10;;;;;;;7.50;6.70;;;;;;;19.49;72.61;100348.13;5073546;28;20657;-75
2023/06/02 09:18:35;;;;;;;8.10;6.77;;;;;;;19.45;72.29;100335.22;5074186;28;20216;-76
2023/06/02 09:21:01;;;;;;;9.63;7.17;;;;;;;19.43;72.24;100332.69;5074089;28;20967;-75
2023/06/02 09:23:44;;;;;;;8.67;7.23;;;;;;;19.42;72.13;100335.34;5073540;28;20195;-75
2023/06/02 09:26:18;;;;;;;7.77;7.07;;;;;;;19.43;71.17;100340.56;5076897;28;20201;-75
2023/06/02 09:28:43;;;;;;;9.77;7.13;;;;;;;19.40;72.39;100338.06;5071526;28;20251;-75
2023/06/02 09:31:09;;;;;;;7.27;6.57;;;;;;;19.49;72.39;100342.88;5068032;28;20220;-75
2023/06/02 09:33:35;;;;;;;6.47;5.87;;;;;;;19.54;73.22;100329.53;5069589;28;20193;-77
2023/06/02 09:36:00;;;;;;;10.40;6.93;;;;;;;19.60;71.75;100328.41;5069673;28;20189;-75
2023/06/02 09:38:26;;;;;;;8.77;7.87;;;;;;;19.62;71.75;100327.44;5071926;28;20690;-77
2023/06/02 09:40:51;;;;;;;10.37;6.77;;;;;;;19.66;72.10;100322.88;5067143;28;20194;-76
2023/06/02 09:43:28;;;;;;;7.70;6.30;;;;;;;19.75;71.38;100334.72;5071264;28;20187;-76
2023/06/02 09:46:01;;;;;;;7.77;6.10;;;;;;;19.85;71.64;100322.88;5066114;28;20185;-77
2023/06/02 09:48:29;;;;;;;7.23;6.50;;;;;;;19.92;71.05;100328.72;5069073;28;20176;-75
2023/06/02 09:50:55;;;;;;;7.33;6.30;;;;;;;19.94;71.07;100325.09;5053278;28;20232;-76
2023/06/02 09:53:22;;;;;;;8.37;7.17;;;;;;;19.93;70.96;100327.78;5073399;28;20259;-77
2023/06/02 09:55:48;;;;;;;8.87;7.53;;;;;;;19.92;69.67;100334.84;5071861;28;20180;-75
2023/06/02 09:58:14;;;;;;;7.60;6.60;;;;;;;19.87;69.16;100328.09;5074798;28;20648;-75
2023/06/02 10:00:39;;;;;;;7.37;6.57;;;;;;;19.93;70.05;100320.78;5066130;28;20218;-77
2023/06/02 10:03:06;;;;;;;9.50;6.73;;;;;;;19.95;69.00;100326.81;5069486;28;20184;-75
2023/06/02 10:05:32;;;;;;;8.20;6.77;;;;;;;20.01;69.67;100330.91;5070223;28;20260;-76
2023/06/02 10:08:12;;;;;;;7.53;6.73;;;;;;;19.94;69.68;100327.72;5053620;28;20189;-78
2023/06/02 10:10:50;;;;;;;10.37;7.20;;;;;;;19.90;70.16;100334.03;5069977;28;20204;-77
2023/06/02 10:13:46;;;;;;;8.70;6.67;;;;;;;19.85;70.17;100345.66;5070869;28;20883;-76
2023/06/02 10:16:57;;;;;;;9.03;6.90;;;;;;;19.91;69.42;100340.13;5072429;28;20208;-77
2023/06/02 10:19:37;;;;;;;7.10;6.37;;;;;;;19.95;68.83;100326.81;5038420;28;20193;-77
2023/06/02 10:22:23;;;;;;;11.10;6.57;;;;;;;20.02;69.00;100319.50;5070787;28;20199;-77
2023/06/02 10:25:16;;;;;;;11.93;7.00;;;;;;;20.00;68.42;100326.59;5070968;28;20733;-76
2023/06/02 10:27:44;;;;;;;7.63;6.47;;;;;;;19.95;67.96;100321.56;5068792;28;20541;-76
2023/06/02 10:30:10;;;;;;;12.17;6.37;;;;;;;20.02;68.71;100321.25;5070187;28;20282;-76
2023/06/02 10:32:47;;;;;;;8.57;5.80;;;;;;;20.14;68.34;100317.19;5069398;28;20703;-75
2023/06/02 10:35:13;;;;;;;7.90;6.23;;;;;;;20.14;67.82;100318.03;5053278;28;20342;-75
2023/06/02 10:37:39;;;;;;;8.83;6.20;;;;;;;20.18;68.57;100324.00;5067834;28;20182;-76
2023/06/02 10:40:05;;;;;;;7.03;5.77;;;;;;;20.15;68.00;100316.25;5066746;28;20681;-76
2023/06/02 10:42:31;;;;;;;8.03;6.27;;;;;;;20.19;68.25;100304.69;5071107;28;20188;-76
2023/06/02 10:45:27;;;;;;;11.37;6.37;;;;;;;20.27;68.51;100294.63;5072973;28;20719;-75
2023/06/02 10:47:52;;;;;;;6.43;5.80;;;;;;;20.32;67.61;100305.78;5064042;28;20230;-75
2023/06/02 10:50:21;;;;;;;5.60;4.97;;;;;;;20.37;68.06;100295.88;5064816;28;20208;-75
2023/06/02 10:53:03;;;;;;;6.90;5.70;;;;;;;20.53;68.30;100290.72;5070301;28;20205;-75
2023/06/02 10:55:30;;;;;;;6.00;5.17;;;;;;;20.57;67.66;100288.75;5075495;28;20176;-75
2023/06/02 10:58:07;;;;;;;7.80;5.80;;;;;;;20.61;66.39;100294.72;5069859;28;20190;-76
2023/06/02 11:00:32;;;;;;;8.43;5.97;;;;;;;20.56;65.91;100287.06;5051259;28;20756;-75
2023/06/02 11:03:05;;;;;;;7.40;6.10;;;;;;;20.61;66.58;100287.69;5070401;28;20203;-75
2023/06/02 11:05:32;;;;;;;9.77;5.07;;;;;;;20.65;66.33;100291.84;5070514;28;20189;-76
2023/06/02 11:08:10;;;;;;;6.87;5.60;;;;;;;20.59;66.45;100289.53;5069906;28;20183;-75
2023/06/02 11:10:48;;;;;;;9.17;5.60;;;;;;;20.62;66.66;100294.66;5068142;28;20243;-78
2023/06/02 11:13:15;;;;;;;9.07;6.00;;;;;;;20.67;66.45;100291.78;5068175;28;20191;-75
2023/06/02 11:16:10;;;;;;;11.17;6.53;;;;;;;20.69;66.17;100285.50;5070251;28;20231;-76
2023/06/02 11:18:40;;;;;;;7.50;5.70;;;;;;;20.77;66.07;100271.16;5042997;28;20200;-76
2023/06/02 11:21:22;;;;;;;10.83;5.57;;;;;;;20.90;65.83;100282.72;5072117;28;20197;-76
2023/06/02 11:23:48;;;;;;;5.73;5.07;;;;;;;21.04;65.55;100270.63;5071095;28;20209;-76
2023/06/02 11:26:21;;;;;;;5.20;4.20;;;;;;;21.10;64.93;100265.88;5074721;28;20272;-75